createdAt,value
2022-07-25T00:01:42.851Z,2.22
2022-07-25T00:04:11.124Z,3.85
2022-07-25T00:06:45.776Z,2.93
2022-07-25T00:09:19.771Z,2.85
2022-07-25T00:11:46.544Z,2.50
2022-07-25T00:14:13.214Z,2.85
2022-07-25T00:16:46.768Z,2.60
2022-07-25T00:19:19.868Z,4.07
2022-07-25T00:21:52.821Z,3.65
2022-07-25T00:24:25.834Z,2.50
2022-07-25T00:26:52.552Z,2.97
2022-07-25T00:29:25.805Z,3.05
2022-07-25T00:31:52.578Z,2.95
2022-07-25T00:34:25.770Z,4.57
2022-07-25T00:36:52.453Z,2.90
2022-07-25T00:39:25.850Z,2.90
2022-07-25T00:41:52.488Z,2.80
2022-07-25T00:44:36.787Z,2.67
2022-07-25T00:47:03.669Z,3.92
2022-07-25T00:49:36.777Z,4.55
2022-07-25T00:52:04.778Z,2.75
2022-07-25T00:54:37.843Z,2.65
2022-07-25T00:57:24.762Z,4.05
2022-07-25T00:59:57.829Z,5.20
2022-07-25T01:02:30.890Z,3.97
2022-07-25T01:05:04.800Z,3.58
2022-07-25T01:07:38.820Z,2.70
2022-07-25T01:10:07.183Z,4.82
2022-07-25T01:13:00.772Z,3.25
2022-07-25T01:15:28.072Z,3.33
2022-07-25T01:18:01.842Z,3.03
2022-07-25T01:20:36.771Z,2.60
2022-07-25T01:23:03.468Z,2.75
2022-07-25T01:25:36.817Z,2.85
2022-07-25T01:28:03.554Z,3.15
2022-07-25T01:30:36.958Z,3.50
2022-07-25T01:33:06.724Z,2.80
2022-07-25T01:35:34.121Z,2.50
2022-07-25T01:38:06.782Z,2.90
2022-07-25T01:40:33.427Z,2.83
2022-07-25T01:43:00.073Z,3.05
2022-07-25T01:45:33.829Z,3.65
2022-07-25T01:48:06.814Z,3.15
2022-07-25T01:50:33.490Z,2.60
2022-07-25T01:53:06.770Z,2.95
2022-07-25T01:55:53.769Z,2.83
2022-07-25T01:58:27.786Z,2.92
2022-07-25T02:01:00.827Z,3.10
2022-07-25T02:03:36.952Z,4.93
2022-07-25T02:06:06.729Z,3.67
2022-07-25T02:08:34.238Z,3.10
2022-07-25T02:11:07.852Z,5.45
2022-07-25T02:13:35.543Z,5.32
2022-07-25T02:16:08.799Z,4.15
2022-07-25T02:18:35.479Z,3.13
2022-07-25T02:21:02.403Z,7.20
2022-07-25T02:23:35.791Z,4.03
2022-07-25T02:26:03.107Z,2.72
2022-07-25T02:28:36.846Z,3.83
2022-07-25T02:31:10.875Z,3.55
2022-07-25T02:33:37.921Z,5.13
2022-07-25T02:36:04.848Z,3.80
2022-07-25T02:38:37.866Z,3.72
2022-07-25T02:41:04.821Z,5.43
2022-07-25T02:43:31.500Z,4.75
2022-07-25T02:46:04.843Z,3.20
2022-07-25T02:48:31.675Z,2.60
2022-07-25T02:51:04.853Z,4.05
2022-07-25T02:53:56.723Z,3.75
2022-07-25T02:56:32.074Z,5.57
2022-07-25T02:59:05.841Z,3.17
2022-07-25T03:01:32.766Z,5.32
2022-07-25T03:04:06.088Z,4.55
2022-07-25T03:06:32.969Z,3.55
2022-07-25T03:08:59.629Z,2.42
2022-07-25T03:11:32.785Z,4.68
2022-07-25T03:13:59.432Z,4.47
2022-07-25T03:16:32.924Z,3.95
2022-07-25T03:18:59.594Z,4.18
2022-07-25T03:21:26.237Z,3.72
2022-07-25T03:23:59.795Z,3.65
2022-07-25T03:26:26.409Z,4.57
2022-07-25T03:28:53.024Z,3.30
2022-07-25T03:31:25.811Z,3.17
2022-07-25T03:33:58.800Z,7.90
2022-07-25T03:36:25.420Z,4.43
2022-07-25T03:38:58.840Z,5.22
2022-07-25T03:41:32.844Z,5.97
2022-07-25T03:43:59.590Z,7.00
2022-07-25T03:46:26.293Z,3.60
2022-07-25T03:48:59.945Z,3.90
2022-07-25T03:51:32.857Z,5.25
2022-07-25T03:54:02.725Z,4.90
2022-07-25T03:56:49.826Z,4.72
2022-07-25T03:59:18.875Z,4.55
2022-07-25T04:01:47.262Z,6.38
2022-07-25T04:04:20.820Z,4.10
2022-07-25T04:06:47.487Z,3.20
2022-07-25T04:09:21.898Z,7.35
2022-07-25T04:11:54.838Z,3.75
2022-07-25T04:14:21.633Z,6.15
2022-07-25T04:16:54.886Z,5.97
2022-07-25T04:19:21.598Z,6.93
2022-07-25T04:21:49.011Z,4.78
2022-07-25T04:24:22.873Z,6.15
2022-07-25T04:26:49.517Z,6.15
2022-07-25T04:29:16.770Z,3.50
2022-07-25T04:31:49.871Z,4.70
2022-07-25T04:34:23.051Z,4.03
2022-07-25T04:36:56.834Z,5.72
2022-07-25T04:39:23.618Z,7.60
2022-07-25T04:41:50.350Z,6.85
2022-07-25T04:44:23.908Z,4.35
2022-07-25T04:46:50.674Z,4.20
2022-07-25T04:49:17.408Z,5.10
2022-07-25T04:51:50.847Z,10.60
2022-07-25T04:54:17.476Z,8.50
2022-07-25T04:56:50.803Z,5.60
2022-07-25T04:59:23.873Z,4.78
2022-07-25T05:01:50.610Z,7.80
2022-07-25T05:04:23.819Z,6.50
2022-07-25T05:06:50.447Z,5.80
2022-07-25T05:09:26.800Z,5.00
2022-07-25T05:12:00.802Z,3.45
2022-07-25T05:14:27.652Z,5.28
2022-07-25T05:16:54.431Z,4.93
2022-07-25T05:19:27.956Z,3.80
2022-07-25T05:21:54.645Z,4.55
2022-07-25T05:24:29.861Z,5.53
2022-07-25T05:26:56.552Z,3.33
2022-07-25T05:29:23.303Z,7.25
2022-07-25T05:31:56.939Z,8.40
2022-07-25T05:34:24.410Z,6.47
2022-07-25T05:36:51.030Z,5.10
2022-07-25T05:39:23.860Z,6.07
2022-07-25T05:41:50.546Z,7.53
2022-07-25T05:44:23.801Z,2.83
2022-07-25T05:46:56.862Z,3.95
2022-07-25T05:49:23.604Z,8.80
2022-07-25T05:51:50.648Z,7.30
2022-07-25T05:54:23.832Z,4.82
2022-07-25T05:57:03.820Z,6.80
2022-07-25T05:59:36.824Z,9.35
2022-07-25T06:02:03.806Z,3.15
2022-07-25T06:04:36.910Z,5.57
2022-07-25T06:07:03.752Z,5.53
2022-07-25T06:09:38.786Z,4.88
2022-07-25T06:12:12.805Z,7.60
2022-07-25T06:14:39.777Z,7.38
2022-07-25T06:17:06.439Z,3.03
2022-07-25T06:19:39.813Z,5.13
2022-07-25T06:22:14.896Z,5.75
2022-07-25T06:24:48.336Z,5.35
2022-07-25T06:27:20.197Z,4.18
2022-07-25T06:29:54.854Z,7.65
2022-07-25T06:32:27.810Z,6.35
2022-07-25T06:35:00.824Z,5.82
2022-07-25T06:37:27.564Z,3.60
2022-07-25T06:39:54.353Z,4.57
2022-07-25T06:42:28.839Z,6.88
2022-07-25T06:44:55.448Z,5.10
2022-07-25T06:47:22.080Z,4.45
2022-07-25T06:49:54.816Z,4.53
2022-07-25T06:52:21.486Z,7.10
2022-07-25T06:54:54.851Z,3.97
2022-07-25T06:57:27.864Z,5.35
2022-07-25T07:00:00.800Z,4.88
2022-07-25T07:02:27.471Z,5.57
2022-07-25T07:05:00.815Z,3.97
2022-07-25T07:07:27.676Z,7.05
2022-07-25T07:10:00.893Z,7.05
2022-07-25T07:12:27.519Z,5.15
2022-07-25T07:15:00.881Z,6.43
2022-07-25T07:17:27.533Z,3.67
2022-07-25T07:20:00.800Z,5.28
2022-07-25T07:22:27.524Z,7.47
2022-07-25T07:25:01.018Z,5.22
2022-07-25T07:27:27.666Z,5.75
2022-07-25T07:29:54.314Z,7.43
2022-07-25T07:32:28.901Z,7.80
2022-07-25T07:34:55.522Z,6.15
2022-07-25T07:37:35.061Z,5.30
2022-07-25T07:40:17.351Z,3.88
2022-07-25T07:42:47.537Z,5.25
2022-07-25T07:45:26.821Z,6.32
2022-07-25T07:48:00.867Z,4.53
2022-07-25T07:50:28.515Z,4.10
2022-07-25T07:52:56.254Z,4.68
2022-07-25T07:55:48.918Z,5.80
2022-07-25T07:58:22.248Z,5.30
2022-07-25T08:00:57.865Z,6.25
2022-07-25T08:03:24.598Z,6.90
2022-07-25T08:05:58.809Z,4.90
2022-07-25T08:08:30.878Z,4.53
2022-07-25T08:11:04.841Z,5.20
2022-07-25T08:13:34.037Z,4.72
2022-07-25T08:16:09.954Z,9.65
2022-07-25T08:18:36.749Z,5.18
2022-07-25T08:21:06.270Z,7.50
2022-07-25T08:23:44.810Z,5.65
2022-07-25T08:26:17.909Z,5.40
2022-07-25T08:29:00.001Z,5.00
2022-07-25T08:31:43.923Z,6.75
2022-07-25T08:34:10.597Z,5.72
2022-07-25T08:36:44.836Z,5.93
2022-07-25T08:39:12.235Z,7.97
2022-07-25T08:41:47.828Z,5.25
2022-07-25T08:44:24.919Z,5.85
2022-07-25T08:46:57.888Z,7.40
2022-07-25T08:49:30.827Z,5.95
2022-07-25T08:52:03.898Z,5.47
2022-07-25T08:54:37.887Z,6.05
2022-07-25T08:57:24.853Z,6.80
2022-07-25T08:59:57.853Z,8.48
2022-07-25T09:02:26.787Z,5.97
2022-07-25T09:04:54.719Z,6.57
2022-07-25T09:07:45.839Z,6.40
2022-07-25T09:10:17.918Z,5.85
2022-07-25T09:13:09.904Z,6.68
2022-07-25T09:15:45.993Z,6.40
2022-07-25T09:18:22.948Z,6.00
2022-07-25T09:20:58.856Z,7.13
2022-07-25T09:23:32.599Z,6.97
2022-07-25T09:26:19.833Z,8.00
2022-07-25T09:28:49.009Z,6.40
2022-07-25T09:31:23.886Z,10.18
2022-07-25T09:33:56.969Z,8.38
2022-07-25T09:36:30.847Z,27.95
2022-07-25T09:39:01.023Z,26.52
2022-07-25T09:41:44.910Z,8.10
2022-07-25T09:44:24.193Z,7.47
2022-07-25T09:46:57.836Z,6.20
2022-07-25T09:49:31.874Z,11.32
2022-07-25T09:51:58.650Z,7.13
2022-07-25T09:54:25.287Z,7.20
2022-07-25T09:56:58.836Z,7.38
2022-07-25T09:59:40.846Z,6.93
2022-07-25T10:02:55.009Z,8.95
2022-07-25T10:05:30.990Z,7.15
2022-07-25T10:08:04.889Z,8.02
2022-07-25T10:10:37.828Z,6.97
2022-07-25T10:13:16.852Z,9.63
2022-07-25T10:15:58.847Z,9.57
2022-07-25T10:18:28.094Z,8.73
2022-07-25T10:21:26.430Z,9.00
2022-07-25T10:24:02.887Z,8.45
2022-07-25T10:26:36.842Z,9.73
2022-07-25T10:29:09.395Z,11.32
2022-07-25T10:31:52.029Z,10.93
2022-07-25T10:34:36.892Z,8.77
2022-07-25T10:37:27.849Z,11.25
2022-07-25T10:39:56.567Z,7.53
2022-07-25T10:42:30.833Z,7.75
2022-07-25T10:44:57.570Z,9.15
2022-07-25T10:47:33.837Z,8.85
2022-07-25T10:55:41.830Z,11.13
2022-07-25T10:58:21.914Z,8.68
2022-07-25T11:00:48.661Z,7.93
2022-07-25T11:03:18.411Z,9.23
2022-07-25T11:05:55.875Z,17.02
2022-07-25T11:08:34.415Z,8.48
2022-07-25T11:11:07.909Z,8.73
2022-07-25T11:13:42.507Z,9.00
2022-07-25T11:16:17.006Z,9.90
2022-07-25T11:18:43.850Z,10.18
2022-07-25T11:21:16.870Z,7.85
2022-07-25T11:23:51.281Z,11.68
2022-07-25T11:26:25.068Z,9.13
2022-07-25T11:28:57.882Z,8.20
2022-07-25T11:31:24.709Z,8.10
2022-07-25T11:33:51.588Z,9.07
2022-07-25T11:36:24.868Z,8.77
2022-07-25T11:38:58.853Z,11.00
2022-07-25T11:41:36.898Z,10.55
2022-07-25T11:44:03.533Z,9.20
2022-07-25T11:46:51.881Z,13.65
2022-07-25T11:49:25.127Z,8.57
2022-07-25T11:51:58.928Z,8.65
2022-07-25T11:54:25.566Z,9.00
2022-07-25T11:57:04.889Z,8.32
2022-07-25T11:59:55.851Z,9.93
2022-07-25T12:02:27.626Z,8.48
2022-07-25T12:05:06.876Z,8.60
2022-07-25T12:07:41.823Z,8.98
2022-07-25T12:13:16.817Z,8.95
2022-07-25T12:15:49.952Z,8.52
2022-07-25T12:18:16.673Z,8.77
2022-07-25T12:20:44.520Z,9.95
2022-07-25T12:23:18.885Z,9.05
2022-07-25T12:25:46.742Z,10.20
2022-07-25T12:28:14.186Z,8.80
2022-07-25T12:30:54.371Z,8.80
2022-07-25T12:33:23.319Z,9.60
2022-07-25T12:35:56.920Z,11.38
2022-07-25T12:38:29.854Z,8.85
2022-07-25T12:41:03.921Z,9.85
2022-07-25T12:43:30.573Z,9.60
2022-07-25T12:46:03.917Z,8.90
2022-07-25T12:48:30.668Z,9.10
2022-07-25T12:51:03.874Z,10.85
2022-07-25T12:53:42.028Z,8.80
2022-07-25T12:56:09.228Z,8.37
2022-07-25T12:58:48.889Z,8.60
2022-07-25T13:01:15.704Z,8.30
2022-07-25T13:03:48.916Z,10.43
2022-07-25T13:06:21.888Z,7.93
2022-07-25T13:08:54.872Z,7.85
2022-07-25T13:11:27.902Z,8.48
2022-07-25T13:13:54.602Z,8.73
2022-07-25T13:16:21.458Z,8.73
2022-07-25T13:18:54.872Z,8.27
2022-07-25T13:21:27.876Z,10.48
2022-07-25T13:24:01.090Z,8.27
2022-07-25T13:26:27.724Z,8.20
2022-07-25T13:29:00.876Z,8.40
2022-07-25T13:31:27.736Z,9.82
2022-07-25T13:34:00.884Z,7.93
2022-07-25T13:36:27.611Z,9.25
2022-07-25T13:39:00.894Z,7.82
2022-07-25T13:41:34.953Z,7.57
2022-07-25T13:44:01.616Z,11.07
2022-07-25T13:46:34.884Z,8.23
2022-07-25T13:49:01.688Z,7.20
2022-07-25T13:51:28.379Z,8.65
2022-07-25T13:54:01.880Z,8.27
2022-07-25T13:56:28.531Z,8.32
2022-07-25T13:59:09.232Z,7.53
2022-07-25T14:04:40.900Z,7.38
2022-07-25T14:07:07.549Z,7.93
2022-07-25T14:09:40.966Z,7.93
2022-07-25T14:12:07.762Z,7.97
2022-07-25T14:14:34.381Z,8.93
2022-07-25T14:17:07.959Z,7.68
2022-07-25T14:19:34.797Z,10.32
2022-07-25T14:22:01.514Z,8.93
2022-07-25T14:24:34.899Z,8.50
2022-07-25T14:27:02.479Z,8.48
2022-07-25T14:29:35.902Z,8.32
2022-07-25T14:32:02.717Z,7.65
2022-07-25T14:34:35.946Z,7.28
2022-07-25T14:37:09.976Z,7.15
2022-07-25T14:39:43.922Z,9.02
2022-07-25T14:42:11.598Z,7.82
2022-07-25T14:44:45.980Z,9.43
2022-07-25T14:47:12.955Z,14.30
2022-07-25T14:49:40.890Z,7.43
2022-07-25T14:52:13.901Z,7.65
2022-07-25T14:54:46.911Z,8.02
2022-07-25T14:57:19.949Z,7.30
2022-07-25T14:59:59.936Z,8.25
2022-07-25T15:02:26.605Z,7.47
2022-07-25T15:04:59.450Z,7.43
2022-07-25T15:07:32.941Z,7.60
2022-07-25T15:10:05.928Z,7.68
2022-07-25T15:12:32.610Z,11.75
2022-07-25T15:14:59.378Z,7.95
2022-07-25T15:17:32.917Z,8.50
2022-07-25T15:20:06.941Z,8.40
2022-07-25T15:22:33.597Z,7.95
2022-07-25T15:25:45.029Z,12.63
2022-07-25T15:27:53.890Z,8.07
2022-07-25T15:30:21.926Z,7.47
2022-07-25T15:32:56.895Z,8.07
2022-07-25T15:35:23.568Z,8.38
2022-07-25T15:37:56.960Z,8.68
2022-07-25T15:40:23.887Z,8.00
2022-07-25T15:42:57.895Z,7.65
2022-07-25T15:45:33.141Z,8.38
2022-07-25T15:48:01.472Z,8.43
2022-07-25T15:50:28.164Z,9.13
2022-07-25T15:53:00.899Z,7.97
2022-07-25T15:55:27.617Z,8.50
2022-07-25T15:58:01.970Z,9.85
2022-07-25T16:00:41.984Z,8.70
2022-07-25T16:03:09.577Z,9.93
2022-07-25T16:05:44.957Z,9.63
2022-07-25T16:08:17.894Z,9.65
2022-07-25T16:10:44.558Z,8.80
2022-07-25T16:13:11.212Z,9.77
2022-07-25T16:15:44.951Z,9.20
2022-07-25T16:18:11.773Z,11.52
2022-07-25T16:20:38.526Z,10.20
2022-07-25T16:23:11.915Z,10.82
2022-07-25T16:25:44.926Z,12.18
2022-07-25T16:28:11.641Z,12.93
2022-07-25T16:30:38.328Z,12.68
2022-07-25T16:33:11.937Z,14.02
2022-07-25T16:35:51.916Z,13.43
2022-07-25T16:38:18.670Z,14.50
2022-07-25T16:40:45.459Z,14.43
2022-07-25T16:43:18.930Z,16.58
2022-07-25T16:45:51.918Z,14.63
2022-07-25T16:48:18.636Z,15.75
2022-07-25T16:50:51.910Z,15.32
2022-07-25T16:53:18.840Z,17.73
2022-07-25T16:55:45.491Z,17.70
2022-07-25T16:58:18.919Z,17.80
2022-07-25T17:00:58.950Z,18.40
2022-07-25T17:03:25.648Z,19.05
2022-07-25T17:05:53.913Z,19.65
2022-07-25T17:08:27.002Z,20.73
2022-07-25T17:11:01.938Z,19.83
2022-07-25T17:13:28.659Z,20.08
2022-07-25T17:16:02.054Z,20.73
2022-07-25T17:18:28.742Z,22.80
2022-07-25T17:21:01.929Z,21.15
2022-07-25T17:23:35.926Z,23.52
2022-07-25T17:26:11.916Z,23.23
2022-07-25T17:28:38.719Z,21.70
2022-07-25T17:31:05.583Z,22.70
2022-07-25T17:33:38.953Z,22.70
2022-07-25T17:36:06.062Z,14.07
2022-07-25T17:38:34.922Z,13.55
2022-07-25T17:41:08.933Z,12.38
2022-07-25T17:43:35.612Z,9.18
2022-07-25T17:46:09.001Z,14.00
2022-07-25T17:48:35.670Z,11.48
2022-07-25T17:51:08.930Z,11.65
2022-07-25T17:53:41.929Z,9.25
2022-07-25T17:56:09.170Z,14.77
2022-07-25T17:58:49.984Z,13.30
2022-07-25T18:01:23.540Z,12.35
2022-07-25T18:03:56.922Z,13.55
2022-07-25T18:06:29.250Z,8.60
2022-07-25T18:08:56.763Z,11.38
2022-07-25T18:11:29.929Z,7.97
2022-07-25T18:14:03.027Z,9.00
2022-07-25T18:16:35.937Z,7.78
2022-07-25T18:19:10.094Z,7.28
2022-07-25T18:21:42.929Z,8.32
2022-07-25T18:24:10.034Z,7.18
2022-07-25T18:26:43.987Z,13.43
2022-07-25T18:29:10.929Z,8.80
2022-07-25T18:31:44.040Z,7.30
2022-07-25T18:34:17.007Z,6.43
2022-07-25T18:36:44.210Z,7.53
2022-07-25T18:39:10.909Z,6.50
2022-07-25T18:41:43.959Z,8.10
2022-07-25T18:44:10.846Z,7.88
2022-07-25T18:46:44.035Z,8.35
2022-07-25T18:49:10.935Z,7.65
2022-07-25T18:51:44.007Z,5.75
2022-07-25T18:54:11.051Z,5.32
2022-07-25T18:56:38.156Z,6.15
2022-07-25T18:59:12.063Z,5.43
2022-07-25T19:01:41.404Z,6.53
2022-07-25T19:04:14.981Z,6.15
2022-07-25T19:06:41.676Z,7.18
2022-07-25T19:09:09.334Z,7.38
2022-07-25T19:11:42.993Z,4.93
2022-07-25T19:14:15.943Z,7.72
2022-07-25T19:16:43.520Z,8.43
2022-07-25T19:19:10.646Z,5.35
2022-07-25T19:21:43.937Z,5.70
2022-07-25T19:24:11.019Z,6.38
2022-07-25T19:26:38.549Z,7.95
2022-07-25T19:29:12.978Z,7.45
2022-07-25T19:31:39.626Z,8.18
2022-07-25T19:34:07.084Z,8.88
2022-07-25T19:36:41.121Z,9.73
2022-07-25T19:39:07.894Z,8.18
2022-07-25T19:41:44.776Z,9.38
2022-07-25T19:44:13.515Z,10.63
2022-07-25T19:46:47.067Z,8.18
2022-07-25T19:49:13.869Z,9.10
2022-07-25T19:51:47.012Z,9.02
2022-07-25T19:54:13.638Z,10.43
2022-07-25T19:56:40.377Z,9.45
2022-07-25T19:59:13.944Z,9.90
2022-07-25T20:01:40.735Z,11.68
2022-07-25T20:04:14.946Z,11.23
2022-07-25T20:06:41.847Z,10.95
2022-07-25T20:09:15.927Z,12.63
2022-07-25T20:11:42.998Z,11.82
2022-07-25T20:14:10.961Z,12.48
2022-07-25T20:16:45.010Z,12.38
2022-07-25T20:19:12.254Z,12.02
2022-07-25T20:21:40.064Z,12.10
2022-07-25T20:24:17.994Z,14.88
2022-07-25T20:26:47.630Z,14.75
2022-07-25T20:29:21.025Z,11.25
2022-07-25T20:31:47.722Z,13.02
2022-07-25T20:34:15.592Z,11.80
2022-07-25T20:36:48.994Z,8.85
2022-07-25T20:39:21.928Z,10.35
2022-07-25T20:41:48.671Z,10.65
2022-07-25T20:44:21.956Z,8.95
2022-07-25T20:46:55.004Z,9.55
2022-07-25T20:49:21.826Z,10.48
2022-07-25T20:51:54.019Z,10.18
2022-07-25T20:54:27.968Z,10.48
2022-07-25T20:56:54.893Z,9.68
2022-07-25T20:59:34.995Z,11.48
2022-07-25T21:04:35.989Z,9.73
2022-07-25T21:07:09.991Z,10.15
2022-07-25T21:09:36.635Z,9.10
2022-07-25T21:12:09.954Z,10.73
2022-07-25T21:14:37.346Z,9.38
2022-07-25T21:17:04.203Z,8.93
2022-07-25T21:19:36.993Z,8.85
2022-07-25T21:22:10.997Z,8.77
2022-07-25T21:24:44.007Z,11.10
2022-07-25T21:27:17.029Z,8.50
2022-07-25T21:29:50.973Z,11.27
2022-07-25T21:32:18.475Z,9.63
2022-07-25T21:34:49.949Z,9.38
2022-07-25T21:37:22.964Z,9.50
2022-07-25T21:39:55.940Z,10.50
2022-07-25T21:42:28.965Z,12.77
2022-07-25T21:44:55.612Z,9.18
2022-07-25T21:47:28.960Z,12.40
2022-07-25T21:50:24.489Z,13.73
2022-07-25T21:52:52.761Z,11.82
2022-07-25T21:55:28.113Z,11.90
2022-07-25T21:58:14.913Z,10.18
2022-07-25T22:00:47.971Z,13.30
2022-07-25T22:03:14.703Z,11.88
2022-07-25T22:05:41.352Z,13.82
2022-07-25T22:08:14.970Z,14.00
2022-07-25T22:10:41.694Z,10.25
2022-07-25T22:13:18.982Z,11.57
2022-07-25T22:15:45.657Z,11.27
2022-07-25T22:18:12.316Z,11.82
2022-07-25T22:20:45.993Z,9.98
2022-07-25T22:23:12.634Z,11.95
2022-07-25T22:25:39.272Z,14.98
2022-07-25T22:28:14.149Z,12.70
2022-07-25T22:30:41.139Z,12.80
2022-07-25T22:33:13.978Z,11.75
2022-07-25T22:35:46.978Z,11.30
2022-07-25T22:38:13.712Z,10.77
2022-07-25T22:40:40.448Z,11.13
2022-07-25T22:43:13.965Z,12.63
2022-07-25T22:45:43.031Z,10.68
2022-07-25T22:48:15.962Z,12.83
2022-07-25T22:50:48.962Z,13.60
2022-07-25T22:53:21.965Z,11.98
2022-07-25T22:55:48.737Z,10.70
2022-07-25T22:58:21.950Z,11.77
2022-07-25T23:00:55.591Z,11.07
2022-07-25T23:03:30.628Z,15.65
2022-07-25T23:05:59.666Z,12.98
2022-07-25T23:08:26.364Z,12.27
2022-07-25T23:10:59.957Z,15.90
2022-07-25T23:13:33.013Z,15.38
2022-07-25T23:16:10.254Z,14.98
2022-07-25T23:18:37.972Z,15.23
2022-07-25T23:21:04.808Z,13.95
2022-07-25T23:23:37.954Z,13.65
2022-07-25T23:26:11.011Z,18.73
2022-07-25T23:28:43.966Z,13.90
2022-07-25T23:31:10.739Z,11.88
2022-07-25T23:33:43.960Z,12.65
2022-07-25T23:36:11.398Z,16.65
2022-07-25T23:38:46.032Z,13.20
2022-07-25T23:41:12.836Z,13.77
2022-07-25T23:43:56.655Z,19.75
2022-07-25T23:46:29.256Z,16.73
2022-07-25T23:49:05.257Z,13.48
2022-07-25T23:51:38.971Z,13.80
2022-07-25T23:54:05.654Z,16.55
2022-07-25T23:56:32.302Z,16.20
2022-07-25T23:59:05.394Z,13.82
